Time;durP1;ratioP1;P1;durP2;ratioP2;P2;SDS_P1;SDS_P2;PMS_P1;PMS_P2;Temp;Humidity;BMP_temperature;BMP_pressure;BME280_temperature;BME280_humidity;BME280_pressure;Samples;Min_cycle;Max_cycle;Signal;HPM_P1;HPM_P2
2021/09/25 00:01:52;;;;;;;3.92;2.67;;;;;;;18.50;35.66;99884.66;5057780;28;20029;-68
2021/09/25 00:04:18;;;;;;;6.22;2.70;;;;;;;18.33;36.12;99878.09;5048132;28;20052;-69
2021/09/25 00:06:43;;;;;;;5.75;2.58;;;;;;;18.42;35.89;99877.66;5049018;28;20021;-69
2021/09/25 00:09:09;;;;;;;4.38;2.75;;;;;;;18.31;36.09;99878.31;5049222;28;20071;-66
2021/09/25 00:11:34;;;;;;;3.22;2.60;;;;;;;18.34;35.92;99875.22;5044776;28;20075;-68
2021/09/25 00:14:00;;;;;;;5.45;2.75;;;;;;;18.30;35.91;99873.16;5050408;28;20029;-66
2021/09/25 00:16:26;;;;;;;4.75;2.60;;;;;;;18.06;36.61;99866.59;5043229;28;20045;-69
2021/09/25 00:18:57;;;;;;;5.28;2.60;;;;;;;18.00;36.63;99878.97;5048518;28;20314;-68
2021/09/25 00:21:23;;;;;;;4.25;2.55;;;;;;;18.03;36.85;99859.78;5050141;28;20269;-66
2021/09/25 00:23:48;;;;;;;3.13;2.60;;;;;;;18.12;36.35;99863.91;5051820;28;20036;-68
2021/09/25 00:26:14;;;;;;;5.63;2.70;;;;;;;18.19;36.57;99871.94;5052663;28;20368;-66
2021/09/25 00:28:39;;;;;;;4.90;2.45;;;;;;;18.14;36.47;99863.69;5048523;28;20045;-66
2021/09/25 00:31:05;;;;;;;3.75;2.40;;;;;;;18.22;36.12;99858.13;5045917;28;20071;-66
2021/09/25 00:33:30;;;;;;;9.15;2.97;;;;;;;18.30;35.93;99862.44;5057145;28;20047;-66
2021/09/25 00:35:56;;;;;;;6.28;2.30;;;;;;;18.17;36.09;99868.63;5046411;28;20045;-66
2021/09/25 00:38:21;;;;;;;3.47;2.35;;;;;;;18.32;35.51;99865.72;5049999;28;20030;-69
2021/09/25 00:40:47;;;;;;;4.57;3.00;;;;;;;18.32;35.63;99855.84;5047201;28;20392;-66
2021/09/25 00:43:13;;;;;;;7.45;2.70;;;;;;;18.47;35.24;99863.63;5044734;28;20033;-66
2021/09/25 00:45:38;;;;;;;5.53;2.83;;;;;;;18.56;35.10;99865.06;5054649;28;20028;-69
2021/09/25 00:48:04;;;;;;;5.68;2.92;;;;;;;18.51;35.35;99870.22;5057336;28;20033;-66
2021/09/25 00:50:29;;;;;;;2.50;2.00;;;;;;;18.53;35.04;99870.84;5055576;28;20041;-66
2021/09/25 00:52:55;;;;;;;5.18;2.58;;;;;;;18.43;34.88;99865.91;5063096;28;20032;-69
2021/09/25 00:55:22;;;;;;;8.88;3.03;;;;;;;18.41;34.97;99870.66;5064539;28;20342;-66
2021/09/25 00:57:52;;;;;;;2.92;2.22;;;;;;;18.48;34.39;99867.97;5063401;28;20025;-68
2021/09/25 01:00:18;;;;;;;5.25;2.60;;;;;;;18.50;34.56;99874.75;5048136;28;20121;-66
2021/09/25 01:02:43;;;;;;;3.15;2.17;;;;;;;18.48;34.53;99863.41;5053591;28;20276;-66
2021/09/25 01:05:09;;;;;;;7.53;2.65;;;;;;;18.54;34.29;99877.84;5048435;28;20061;-68
2021/09/25 01:07:35;;;;;;;4.22;2.85;;;;;;;18.43;34.85;99875.81;5049004;28;20364;-68
2021/09/25 01:10:00;;;;;;;6.05;2.53;;;;;;;18.49;34.96;99883.84;5049486;28;20039;-66
2021/09/25 01:12:26;;;;;;;4.95;2.60;;;;;;;18.41;34.39;99865.28;5051668;28;20258;-68
2021/09/25 01:14:51;;;;;;;3.25;2.40;;;;;;;18.46;34.45;99878.91;5054475;28;20222;-68
2021/09/25 01:17:17;;;;;;;3.72;2.38;;;;;;;18.50;34.79;99882.81;5052470;28;20029;-69
2021/09/25 01:19:43;;;;;;;8.05;2.88;;;;;;;18.47;34.73;99885.91;5049161;28;20033;-66
2021/09/25 01:22:10;;;;;;;5.38;2.72;;;;;;;18.44;35.00;99886.31;5052421;28;20344;-66
2021/09/25 01:24:36;;;;;;;5.93;2.92;;;;;;;18.58;34.65;99887.13;5048616;28;20025;-68
2021/09/25 01:27:02;;;;;;;4.88;2.55;;;;;;;18.38;34.98;99895.22;5052667;28;20024;-69
2021/09/25 01:29:29;;;;;;;4.60;2.80;;;;;;;18.46;34.87;99889.63;5054913;28;20319;-66
2021/09/25 01:31:55;;;;;;;3.45;2.35;;;;;;;18.33;35.27;99892.31;5054714;28;20119;-68
2021/09/25 01:34:21;;;;;;;5.55;2.90;;;;;;;18.37;35.49;99896.25;5058362;28;20045;-68
2021/09/25 01:36:48;;;;;;;6.72;3.65;;;;;;;18.62;35.29;99901.78;5062618;28;20025;-65
2021/09/25 01:39:13;;;;;;;5.28;3.08;;;;;;;18.70;34.86;99903.41;5055795;28;20056;-66
2021/09/25 01:41:38;;;;;;;6.15;2.90;;;;;;;18.60;35.21;99906.50;5041805;28;20404;-68
2021/09/25 01:44:04;;;;;;;6.03;2.60;;;;;;;18.58;35.13;99894.34;5055621;28;20037;-66
2021/09/25 01:46:29;;;;;;;4.80;2.75;;;;;;;18.68;34.71;99897.44;5060620;28;20036;-66
2021/09/25 01:48:55;;;;;;;5.43;2.70;;;;;;;18.38;34.75;99864.88;5062713;28;20033;-66
2021/09/25 01:51:20;;;;;;;7.68;3.17;;;;;;;18.57;34.76;99900.72;5063545;28;20325;-68
2021/09/25 01:53:46;;;;;;;6.63;3.25;;;;;;;18.63;34.53;99887.34;5063566;28;20040;-67
2021/09/25 01:56:14;;;;;;;5.70;3.20;;;;;;;18.78;34.34;99904.03;5063322;28;20041;-66
2021/09/25 01:58:40;;;;;;;6.80;3.55;;;;;;;18.73;34.36;99889.63;5062387;28;20037;-66
2021/09/25 02:01:07;;;;;;;7.93;3.30;;;;;;;18.76;34.34;99889.19;5063696;28;20237;-66
2021/09/25 02:03:36;;;;;;;4.38;3.10;;;;;;;18.79;34.33;99900.31;5045184;28;20207;-68
2021/09/25 02:06:08;;;;;;;7.32;3.10;;;;;;;18.70;34.49;99896.19;5063250;28;20031;-66
2021/09/25 02:08:34;;;;;;;5.85;3.00;;;;;;;18.50;34.88;99896.22;5063208;28;20316;-66
2021/09/25 02:11:00;;;;;;;4.38;2.95;;;;;;;18.60;34.60;99887.72;5063279;28;20013;-67
2021/09/25 02:13:26;;;;;;;5.38;2.90;;;;;;;18.74;34.41;99892.09;5062962;28;20041;-66
2021/09/25 02:15:52;;;;;;;6.15;3.00;;;;;;;18.72;34.72;99899.47;5063161;28;20033;-66
2021/09/25 02:18:18;;;;;;;4.88;2.80;;;;;;;18.65;34.89;99897.84;5062446;28;20115;-66
2021/09/25 02:20:43;;;;;;;7.28;2.88;;;;;;;18.59;34.79;99901.34;5062861;28;20069;-66
2021/09/25 02:23:09;;;;;;;7.35;3.10;;;;;;;18.65;34.58;99905.91;5063039;28;20074;-68
2021/09/25 02:25:34;;;;;;;9.05;3.50;;;;;;;18.60;34.70;99895.78;5062793;28;20036;-66
2021/09/25 02:28:00;;;;;;;9.63;3.35;;;;;;;18.49;34.68;99899.94;5062645;28;20035;-68
2021/09/25 02:30:26;;;;;;;6.45;3.15;;;;;;;18.64;34.26;99891.66;5062721;28;20025;-66
2021/09/25 02:32:52;;;;;;;4.68;2.78;;;;;;;18.64;34.48;99901.56;5061278;28;20037;-66
2021/09/25 02:35:19;;;;;;;4.80;2.75;;;;;;;18.53;34.61;99905.69;5033141;28;20060;-68
2021/09/25 02:37:46;;;;;;;3.90;2.55;;;;;;;18.49;34.86;99910.66;5058388;28;20194;-68
2021/09/25 02:40:12;;;;;;;5.43;2.50;;;;;;;18.51;34.95;99921.16;5053727;28;20047;-68
2021/09/25 02:42:38;;;;;;;5.88;2.30;;;;;;;18.45;35.58;99922.00;5046112;28;20041;-66
2021/09/25 02:45:05;;;;;;;4.32;2.63;;;;;;;18.58;35.53;99923.84;5049396;28;20247;-66
2021/09/25 02:47:30;;;;;;;5.65;2.72;;;;;;;18.65;35.42;99930.03;5042919;28;20068;-68
2021/09/25 02:49:56;;;;;;;4.15;2.88;;;;;;;18.72;35.39;99936.22;5049952;28;20045;-66
2021/09/25 02:52:21;;;;;;;5.10;2.40;;;;;;;18.60;35.37;99932.50;5041240;28;20319;-68
2021/09/25 02:54:46;;;;;;;3.55;2.70;;;;;;;18.45;35.51;99935.41;5044040;28;20032;-68
2021/09/25 02:57:13;;;;;;;3.65;2.63;;;;;;;18.39;35.40;99933.56;5060766;28;20047;-67
2021/09/25 02:59:38;;;;;;;4.15;2.53;;;;;;;18.56;34.36;99923.22;5045679;28;20322;-69
2021/09/25 03:02:04;;;;;;;5.35;2.55;;;;;;;18.67;34.58;99936.03;5043985;28;20036;-68
2021/09/25 03:04:29;;;;;;;4.60;2.92;;;;;;;18.59;34.91;99942.41;5040870;28;20488;-66
2021/09/25 03:06:55;;;;;;;4.45;2.60;;;;;;;18.55;34.89;99943.03;5024074;28;20041;-68
2021/09/25 03:09:22;;;;;;;6.93;3.08;;;;;;;18.56;34.93;99944.69;5058041;28;20333;-66
2021/09/25 03:11:48;;;;;;;5.43;2.80;;;;;;;18.43;35.01;99946.34;5052605;28;20091;-66
2021/09/25 03:14:14;;;;;;;6.57;2.75;;;;;;;18.47;34.76;99952.13;5057945;28;20040;-68
2021/09/25 03:16:39;;;;;;;6.30;3.13;;;;;;;18.44;35.19;99955.22;5056508;28;20021;-68
2021/09/25 03:19:04;;;;;;;5.18;2.70;;;;;;;18.45;34.95;99962.22;5053678;28;20031;-66
2021/09/25 03:21:30;;;;;;;8.80;3.05;;;;;;;18.21;35.82;99958.31;5029269;28;20060;-69
2021/09/25 03:23:55;;;;;;;6.72;3.38;;;;;;;18.19;35.96;99963.88;5055293;28;20044;-69
2021/09/25 03:26:21;;;;;;;3.85;2.60;;;;;;;18.08;36.28;99961.81;5052748;28;20157;-66
2021/09/25 03:28:46;;;;;;;5.47;2.60;;;;;;;17.98;36.23;99969.44;5047692;28;20086;-68
2021/09/25 03:31:12;;;;;;;6.13;3.17;;;;;;;18.02;36.76;99968.00;5040996;28;20037;-69
2021/09/25 03:33:37;;;;;;;6.63;2.78;;;;;;;18.14;36.55;99969.03;5040583;28;20323;-69
2021/09/25 03:36:03;;;;;;;5.15;2.83;;;;;;;18.09;36.65;99965.31;5057299;28;20032;-66
2021/09/25 03:38:29;;;;;;;6.57;2.42;;;;;;;18.16;36.19;99980.38;5048888;28;20040;-69
2021/09/25 03:40:55;;;;;;;9.15;2.83;;;;;;;18.23;36.22;99990.28;5057239;28;20160;-68
2021/09/25 03:43:21;;;;;;;5.40;3.05;;;;;;;18.34;36.12;99986.97;5045888;28;20047;-66
2021/09/25 03:45:46;;;;;;;4.88;2.92;;;;;;;18.22;36.46;99992.13;5055511;28;20033;-68
2021/09/25 03:48:12;;;;;;;5.05;3.13;;;;;;;17.51;38.35;100000.59;5049976;28;20033;-66
2021/09/25 03:50:38;;;;;;;4.53;2.85;;;;;;;17.00;38.72;100005.50;5053592;28;20047;-68
2021/09/25 03:53:03;;;;;;;4.47;3.00;;;;;;;16.70;39.58;99994.22;5050470;28;20207;-66
2021/09/25 03:55:29;;;;;;;4.50;2.97;;;;;;;16.71;39.74;100011.06;5046951;28;20044;-66
2021/09/25 03:57:58;;;;;;;5.78;3.33;;;;;;;16.76;39.71;100008.66;5046589;28;20429;-69
2021/09/25 04:00:24;;;;;;;7.10;3.30;;;;;;;16.87;39.94;100016.94;5051346;28;20037;-66
2021/09/25 04:02:51;;;;;;;8.02;2.95;;;;;;;16.90;39.58;100005.84;5048724;28;20024;-68
2021/09/25 04:05:18;;;;;;;4.93;3.22;;;;;;;17.11;39.37;100020.16;5053817;28;20040;-66
2021/09/25 04:07:44;;;;;;;5.22;2.80;;;;;;;17.11;39.34;100006.78;5056077;28;20326;-66
2021/09/25 04:10:09;;;;;;;7.85;3.08;;;;;;;17.09;39.52;100015.00;5048286;28;20037;-66
2021/09/25 04:12:35;;;;;;;5.80;2.75;;;;;;;17.36;38.71;100015.97;5055699;28;20060;-66
2021/09/25 04:15:01;;;;;;;4.63;2.50;;;;;;;17.61;38.25;100028.84;5060448;28;20033;-66
2021/09/25 04:17:27;;;;;;;10.45;2.95;;;;;;;17.62;38.04;100031.31;5052879;28;20033;-68
2021/09/25 04:19:52;;;;;;;3.97;2.85;;;;;;;17.79;37.61;100038.03;5057225;28;20029;-68
2021/09/25 04:22:17;;;;;;;7.05;3.22;;;;;;;17.69;37.80;100042.09;5052541;28;20490;-68
2021/09/25 04:24:43;;;;;;;5.20;3.15;;;;;;;17.78;37.81;100046.25;5056600;28;20033;-66
2021/09/25 04:27:10;;;;;;;14.60;9.18;;;;;;;17.82;37.76;100045.66;5049561;28;20041;-66
2021/09/25 04:29:35;;;;;;;9.77;4.03;;;;;;;17.74;38.01;100053.88;5055004;28;20281;-68
2021/09/25 04:32:01;;;;;;;15.38;6.22;;;;;;;17.89;38.17;100059.06;5050203;28;20033;-66
2021/09/25 04:34:26;;;;;;;8.45;4.55;;;;;;;17.66;38.41;100039.75;5049635;28;20616;-67
2021/09/25 04:36:51;;;;;;;8.40;3.85;;;;;;;17.73;38.71;100064.78;5053864;28;20040;-67
2021/09/25 04:39:17;;;;;;;6.32;3.30;;;;;;;17.59;39.44;100077.22;5060275;28;20025;-69
2021/09/25 04:41:42;;;;;;;7.50;3.95;;;;;;;17.59;39.34;100077.22;5055526;28;20029;-66
2021/09/25 04:44:14;;;;;;;6.30;3.45;;;;;;;17.55;38.51;100086.69;5032090;28;20021;-68
2021/09/25 04:46:39;;;;;;;13.35;3.83;;;;;;;17.55;38.89;100067.94;5050573;28;20037;-68
2021/09/25 04:49:05;;;;;;;5.57;3.30;;;;;;;17.74;38.55;100087.88;5057434;28;20112;-68
2021/09/25 04:51:30;;;;;;;8.57;3.70;;;;;;;17.88;38.44;100094.09;5057187;28;20041;-66
2021/09/25 04:53:56;;;;;;;10.13;3.67;;;;;;;17.95;38.88;100094.94;5047959;28;20322;-66
2021/09/25 04:56:22;;;;;;;4.85;3.20;;;;;;;17.97;38.72;100096.38;5052830;28;20044;-68
2021/09/25 04:58:47;;;;;;;5.03;3.42;;;;;;;17.97;38.69;100096.38;5063351;28;20302;-68
2021/09/25 05:01:13;;;;;;;8.25;4.60;;;;;;;18.08;38.24;100101.16;5059442;28;20038;-66
2021/09/25 05:03:39;;;;;;;10.32;4.18;;;;;;;18.10;38.82;100092.91;5049792;28;20033;-69
2021/09/25 05:06:04;;;;;;;6.30;3.20;;;;;;;18.23;38.90;100110.88;5049860;28;20204;-66
2021/09/25 05:08:30;;;;;;;6.07;3.75;;;;;;;18.24;39.25;100102.66;5055098;28;20033;-69
2021/09/25 05:10:55;;;;;;;7.10;3.78;;;;;;;18.51;39.14;100107.03;5046659;28;20041;-69
2021/09/25 05:13:21;;;;;;;10.23;4.22;;;;;;;18.61;38.99;100114.69;5048750;28;20031;-66
2021/09/25 05:15:46;;;;;;;9.15;3.55;;;;;;;18.73;39.01;100106.88;5043219;28;20041;-68
2021/09/25 05:18:12;;;;;;;6.00;3.60;;;;;;;18.92;38.70;100113.28;5048130;28;20033;-68
2021/09/25 05:20:37;;;;;;;10.38;3.80;;;;;;;19.04;38.94;100115.13;5061348;28;20031;-66
2021/09/25 05:23:02;;;;;;;10.68;3.60;;;;;;;19.18;38.50;100110.56;5053016;28;20596;-66
2021/09/25 05:25:28;;;;;;;7.20;3.83;;;;;;;19.29;38.21;100119.84;5049404;28;20025;-67
2021/09/25 05:27:53;;;;;;;6.03;3.70;;;;;;;19.39;37.64;100113.00;5053101;28;20429;-69
2021/09/25 05:30:19;;;;;;;7.03;3.70;;;;;;;19.59;37.71;100125.59;5052709;28;20192;-66
2021/09/25 05:32:53;;;;;;;8.45;3.42;;;;;;;19.92;37.44;100130.88;5229913;22;20023;-69
2021/09/25 05:35:18;;;;;;;;;;;;;;;20.26;36.23;100133.16;5040889;28;20095;-69
2021/09/25 05:37:44;;;;;;;5.90;3.40;;;;;;;20.59;35.74;100124.09;5043415;28;19917;-69
2021/09/25 05:40:10;;;;;;;7.47;3.45;;;;;;;20.56;35.62;100135.28;5044191;28;20032;-69
2021/09/25 05:42:35;;;;;;;7.55;4.00;;;;;;;20.89;35.32;100130.50;5043588;28;20258;-68
2021/09/25 05:45:01;;;;;;;11.20;3.00;;;;;;;21.04;34.73;100128.31;5043543;28;20037;-69
2021/09/25 05:47:26;;;;;;;5.80;3.20;;;;;;;21.03;34.61;100139.31;5043496;28;20025;-69
2021/09/25 05:49:52;;;;;;;7.80;3.40;;;;;;;21.28;34.59;100132.06;5043585;28;20311;-69
2021/09/25 05:52:19;;;;;;;7.97;3.13;;;;;;;21.26;34.51;100141.41;5043304;28;20061;-69
2021/09/25 05:54:45;;;;;;;6.72;3.08;;;;;;;21.44;34.10;100135.22;5043381;28;20037;-69
2021/09/25 05:57:11;;;;;;;13.18;3.30;;;;;;;21.76;33.62;100155.59;5043367;28;20053;-69
2021/09/25 05:59:37;;;;;;;7.00;3.30;;;;;;;21.97;32.79;100146.22;5043264;28;20047;-69
2021/09/25 06:02:04;;;;;;;8.43;4.63;;;;;;;22.11;33.03;100157.72;5043360;28;20234;-69
2021/09/25 06:04:30;;;;;;;9.30;3.30;;;;;;;22.48;32.34;100158.44;5042469;28;20048;-69
2021/09/25 06:06:56;;;;;;;8.43;3.20;;;;;;;22.66;31.97;100149.47;5043493;28;20021;-69
2021/09/25 06:09:21;;;;;;;11.00;3.30;;;;;;;22.92;31.35;100152.63;5043174;28;20222;-69
2021/09/25 06:11:47;;;;;;;5.18;2.85;;;;;;;22.94;31.39;100157.78;5043255;28;20344;-69
2021/09/25 06:14:13;;;;;;;3.72;2.83;;;;;;;23.05;31.19;100140.78;5042944;28;20274;-69
2021/09/25 06:16:38;;;;;;;11.50;3.10;;;;;;;23.38;30.98;100148.28;5043127;28;20041;-69
2021/09/25 06:19:04;;;;;;;11.27;3.78;;;;;;;23.75;30.58;100156.97;5042616;28;20222;-69
2021/09/25 06:21:29;;;;;;;7.05;3.15;;;;;;;23.66;30.52;100160.28;5042444;28;20029;-69
2021/09/25 06:23:55;;;;;;;6.03;3.30;;;;;;;23.90;29.98;100161.88;5028603;28;20034;-69
2021/09/25 06:26:20;;;;;;;5.57;3.05;;;;;;;24.06;29.95;100169.28;5021976;28;20080;-70
2021/09/25 06:28:46;;;;;;;10.20;3.15;;;;;;;24.25;29.63;100166.38;5021731;28;20030;-69
2021/09/25 06:31:15;;;;;;;4.88;3.03;;;;;;;24.71;29.04;100170.78;5027640;28;20075;-69
2021/09/25 06:33:42;;;;;;;7.07;3.67;;;;;;;24.65;28.74;100169.88;5038970;28;20101;-69
2021/09/25 06:36:07;;;;;;;4.55;2.97;;;;;;;24.46;28.51;100173.84;5041686;28;20059;-69
2021/09/25 06:38:33;;;;;;;6.40;3.33;;;;;;;24.46;29.60;100173.84;5026100;28;20033;-69
2021/09/25 06:40:58;;;;;;;4.97;3.50;;;;;;;24.77;29.27;100173.34;5028149;28;20033;-69
2021/09/25 06:43:24;;;;;;;7.18;3.40;;;;;;;25.09;28.76;100181.78;5031780;28;20030;-69
2021/09/25 06:45:49;;;;;;;7.78;3.20;;;;;;;25.11;28.84;100174.22;5039767;28;20087;-69
2021/09/25 06:48:15;;;;;;;10.38;3.75;;;;;;;25.35;28.57;100187.59;5041367;28;20033;-69
2021/09/25 06:50:40;;;;;;;9.98;3.47;;;;;;;25.40;28.78;100187.66;5035030;28;20032;-69
2021/09/25 06:53:05;;;;;;;6.90;3.75;;;;;;;25.58;28.12;100187.41;5026486;28;20033;-69
2021/09/25 06:55:31;;;;;;;4.65;3.08;;;;;;;25.54;28.25;100188.16;5028236;28;20029;-69
2021/09/25 06:57:57;;;;;;;11.32;5.10;;;;;;;25.68;28.38;100179.44;5037745;28;20246;-69
2021/09/25 07:00:22;;;;;;;10.63;3.90;;;;;;;25.88;28.35;100184.31;5036083;28;20408;-69
2021/09/25 07:02:48;;;;;;;7.20;3.40;;;;;;;26.32;27.98;100187.88;5022489;28;20045;-69
2021/09/25 07:05:14;;;;;;;7.13;3.30;;;;;;;26.26;27.55;100188.88;5032628;28;20056;-69
2021/09/25 07:07:39;;;;;;;7.53;3.38;;;;;;;26.32;27.41;100195.16;5028960;28;20037;-69
2021/09/25 07:10:06;;;;;;;6.07;3.55;;;;;;;26.76;27.95;100182.34;5029611;28;20029;-69
2021/09/25 07:12:32;;;;;;;6.68;3.42;;;;;;;26.90;26.47;100185.44;5034702;28;20042;-69
2021/09/25 07:14:57;;;;;;;8.00;3.33;;;;;;;26.79;26.68;100173.69;5032132;28;20030;-69
2021/09/25 07:17:24;;;;;;;12.35;3.13;;;;;;;26.44;26.77;100189.63;5040801;28;20040;-69
2021/09/25 07:19:50;;;;;;;7.40;3.38;;;;;;;26.71;27.23;100188.53;5040768;28;20263;-69
2021/09/25 07:22:16;;;;;;;5.15;3.22;;;;;;;26.98;26.88;100185.00;5029241;28;20307;-69
2021/09/25 07:24:42;;;;;;;9.13;3.42;;;;;;;26.89;26.60;100178.38;5029271;28;20037;-69
2021/09/25 07:27:07;;;;;;;13.27;3.50;;;;;;;26.67;26.70;100156.72;5041500;28;20037;-69
2021/09/25 07:29:33;;;;;;;11.82;3.40;;;;;;;26.97;26.42;100189.63;5040360;28;20227;-69
2021/09/25 07:31:58;;;;;;;13.13;3.08;;;;;;;26.83;26.88;100184.84;5028429;28;20022;-69
2021/09/25 07:34:24;;;;;;;13.57;3.20;;;;;;;27.07;27.05;100183.47;5035942;28;20034;-69
2021/09/25 07:36:49;;;;;;;5.53;3.17;;;;;;;27.13;27.11;100187.88;5028687;28;20044;-69
2021/09/25 07:39:15;;;;;;;5.93;3.15;;;;;;;27.36;27.42;100189.41;5033265;28;20030;-69
2021/09/25 07:41:40;;;;;;;8.95;2.85;;;;;;;27.30;26.74;100185.81;5033165;28;20045;-70
2021/09/25 07:44:06;;;;;;;8.15;4.15;;;;;;;27.24;27.02;100189.59;5029124;28;20033;-69
2021/09/25 07:46:32;;;;;;;4.43;3.13;;;;;;;27.54;27.05;100194.41;5030901;28;20285;-69
2021/09/25 07:49:01;;;;;;;5.68;2.90;;;;;;;27.33;27.23;100204.34;5029097;28;20061;-69
2021/09/25 07:51:27;;;;;;;13.23;8.48;;;;;;;27.62;26.78;100202.13;5029898;28;20048;-69
2021/09/25 07:53:53;;;;;;;6.95;3.10;;;;;;;27.76;26.55;100196.19;5027813;28;20041;-69
2021/09/25 07:56:19;;;;;;;5.38;2.58;;;;;;;28.07;26.70;100197.16;5034202;28;20041;-70
2021/09/25 07:58:44;;;;;;;9.25;3.30;;;;;;;27.81;26.33;100196.22;5035827;28;20041;-69
2021/09/25 08:01:10;;;;;;;5.85;4.40;;;;;;;27.32;27.03;100194.53;5036231;28;20025;-69
2021/09/25 08:03:35;;;;;;;5.65;2.55;;;;;;;27.68;26.37;100200.25;5032905;28;20045;-69
2021/09/25 08:06:01;;;;;;;12.13;2.88;;;;;;;27.94;26.41;100195.75;5031774;28;20424;-70
2021/09/25 08:08:26;;;;;;;7.47;2.80;;;;;;;28.14;25.97;100203.22;5039673;28;20311;-69
2021/09/25 08:10:52;;;;;;;10.98;3.30;;;;;;;28.36;25.76;100195.69;5044246;28;20029;-69
2021/09/25 08:13:17;;;;;;;8.63;3.15;;;;;;;28.34;26.06;100199.75;5034353;28;20044;-70
2021/09/25 08:15:43;;;;;;;9.27;3.53;;;;;;;28.33;26.04;100198.13;5027060;28;20032;-70
2021/09/25 08:18:08;;;;;;;8.07;2.65;;;;;;;28.32;25.82;100191.03;5045320;28;20033;-70
2021/09/25 08:20:33;;;;;;;5.13;2.40;;;;;;;28.35;25.33;100191.31;5045167;28;20089;-69
2021/09/25 08:22:59;;;;;;;6.82;4.47;;;;;;;28.25;25.83;100194.03;5044980;28;20033;-70
2021/09/25 08:25:25;;;;;;;11.18;4.00;;;;;;;28.13;26.12;100202.38;5045116;28;20026;-70
2021/09/25 08:27:51;;;;;;;6.72;3.22;;;;;;;28.23;26.45;100201.63;5045174;28;20033;-69
2021/09/25 08:30:19;;;;;;;5.05;2.72;;;;;;;28.36;26.34;100211.19;5045040;28;20079;-69
2021/09/25 08:32:45;;;;;;;5.32;2.38;;;;;;;28.39;25.53;100199.78;5044173;28;20041;-69
2021/09/25 08:35:11;;;;;;;6.03;2.90;;;;;;;28.52;25.61;100191.09;5045647;28;20033;-69
2021/09/25 08:37:38;;;;;;;7.20;2.70;;;;;;;28.38;26.05;100188.06;5027042;28;20038;-70
2021/09/25 08:40:07;;;;;;;11.43;2.70;;;;;;;28.20;26.17;100192.06;5045357;28;20047;-69
2021/09/25 08:42:33;;;;;;;5.75;2.83;;;;;;;28.59;26.10;100192.47;5044560;28;20230;-69
2021/09/25 08:44:58;;;;;;;7.13;3.08;;;;;;;28.80;25.45;100203.38;5044762;28;20040;-69
2021/09/25 08:47:23;;;;;;;4.32;2.90;;;;;;;28.95;25.28;100200.72;5044709;28;20315;-69
2021/09/25 08:49:49;;;;;;;8.18;3.22;;;;;;;29.02;24.77;100203.16;5056122;28;20025;-69
2021/09/25 08:52:16;;;;;;;5.78;2.58;;;;;;;28.92;24.96;100191.16;5055396;28;20348;-69
2021/09/25 08:54:42;;;;;;;7.28;2.85;;;;;;;28.77;26.09;100190.31;5044614;28;20036;-69
2021/09/25 08:57:07;;;;;;;7.60;2.90;;;;;;;29.02;25.35;100192.25;5044679;28;20230;-70
2021/09/25 08:59:33;;;;;;;5.07;2.88;;;;;;;28.86;25.54;100191.44;5044421;28;20283;-70
2021/09/25 09:02:10;;;;;;;4.15;3.10;;;;;;;28.74;25.82;100199.03;5044073;28;20048;-69
2021/09/25 09:04:47;;;;;;;3.63;2.97;;;;;;;28.89;25.31;100186.25;5044046;28;20033;-69
2021/09/25 09:07:24;;;;;;;6.88;3.13;;;;;;;28.97;25.88;100197.72;5043776;28;20068;-69
2021/09/25 09:09:49;;;;;;;3.80;2.53;;;;;;;28.79;25.53;100193.56;5044310;28;20037;-69
2021/09/25 09:12:22;;;;;;;8.73;4.30;;;;;;;28.53;25.71;100196.25;5044186;28;20093;-69
2021/09/25 09:14:49;;;;;;;6.85;3.70;;;;;;;28.64;26.36;100190.84;5026393;28;20199;-69
2021/09/25 09:17:26;;;;;;;10.48;3.65;;;;;;;28.84;26.10;100190.88;5044189;28;20287;-69
2021/09/25 09:19:52;;;;;;;7.75;4.22;;;;;;;28.74;25.89;100193.56;5060679;28;20037;-70
2021/09/25 09:22:20;;;;;;;4.30;3.17;;;;;;;28.88;25.94;100191.97;5045298;28;20060;-70
2021/09/25 09:24:49;;;;;;;7.18;3.10;;;;;;;28.77;26.40;100188.41;5025726;28;20033;-70
2021/09/25 09:27:26;;;;;;;4.60;3.33;;;;;;;28.83;26.40;100187.34;5043266;28;20357;-69
2021/09/25 09:30:12;;;;;;;3.00;2.80;;;;;;;28.61;26.67;100186.75;5043954;28;20100;-69
2021/09/25 09:32:44;;;;;;;5.60;2.70;;;;;;;28.48;27.20;100184.53;5043140;28;20083;-69
2021/09/25 09:35:16;;;;;;;5.28;2.70;;;;;;;28.42;26.67;100183.72;5043905;28;20029;-70
2021/09/25 09:37:44;;;;;;;6.18;2.97;;;;;;;28.51;26.60;100186.72;5043649;28;20048;-69
2021/09/25 09:40:10;;;;;;;10.55;5.90;;;;;;;28.51;27.81;100194.91;5043903;28;20025;-70
2021/09/25 09:42:45;;;;;;;8.13;3.70;;;;;;;28.43;26.83;100190.78;5043485;28;20044;-69
2021/09/25 09:45:11;;;;;;;5.40;4.30;;;;;;;28.19;27.51;100187.69;5043805;28;20271;-69
2021/09/25 09:47:45;;;;;;;5.78;2.63;;;;;;;28.23;27.53;100196.19;5043423;28;20061;-69
2021/09/25 09:50:10;;;;;;;13.82;2.75;;;;;;;28.36;27.89;100195.69;5043803;28;20032;-69
2021/09/25 09:52:36;;;;;;;6.97;2.60;;;;;;;28.27;27.20;100197.28;5043522;28;20042;-69
2021/09/25 09:55:02;;;;;;;4.88;3.42;;;;;;;28.31;27.73;100195.66;5043614;28;20033;-70
2021/09/25 09:57:28;;;;;;;5.70;3.40;;;;;;;28.38;28.15;100190.78;5043550;28;20053;-71
2021/09/25 09:59:54;;;;;;;2.83;2.53;;;;;;;28.16;27.62;100184.69;5043274;28;20025;-71
2021/09/25 10:02:19;;;;;;;7.13;2.55;;;;;;;27.80;27.81;100187.25;5043056;28;20196;-70
2021/09/25 10:04:45;;;;;;;4.70;2.60;;;;;;;27.73;28.60;100183.13;5042779;28;20055;-71
2021/09/25 10:07:11;;;;;;;11.10;2.67;;;;;;;28.03;28.04;100183.25;5043408;28;20128;-70
2021/09/25 10:09:39;;;;;;;4.25;2.15;;;;;;;27.90;28.12;100186.47;5043035;28;20049;-71
2021/09/25 10:12:07;;;;;;;5.88;2.38;;;;;;;27.87;28.60;100193.25;5029601;28;20021;-71
2021/09/25 10:14:39;;;;;;;5.20;2.50;;;;;;;27.89;28.14;100176.66;5040619;28;20418;-71
2021/09/25 10:17:07;;;;;;;5.88;2.58;;;;;;;28.22;27.81;100184.44;5024117;28;20235;-71
2021/09/25 10:19:34;;;;;;;5.85;2.72;;;;;;;28.03;28.22;100177.00;5026923;28;20262;-71
2021/09/25 10:22:08;;;;;;;3.85;2.40;;;;;;;28.10;27.58;100188.50;5021941;28;20057;-71
2021/09/25 10:24:44;;;;;;;3.50;2.55;;;;;;;28.17;28.46;100181.72;5023782;28;20208;-71
2021/09/25 10:27:10;;;;;;;18.80;3.35;;;;;;;28.13;27.63;100180.59;5034018;28;20034;-71
2021/09/25 10:29:43;;;;;;;6.70;2.50;;;;;;;28.33;27.45;100182.59;5036102;28;20036;-71
2021/09/25 10:32:21;;;;;;;8.20;2.30;;;;;;;28.35;27.52;100174.97;5028820;28;20037;-71
2021/09/25 10:35:03;;;;;;;4.53;2.47;;;;;;;28.48;27.15;100170.91;5027834;28;20330;-71
2021/09/25 10:37:59;;;;;;;3.35;2.58;;;;;;;28.42;27.37;100170.09;5031439;28;20113;-71
2021/09/25 10:40:29;;;;;;;4.47;2.10;;;;;;;28.39;27.62;100164.38;5030628;28;20087;-71
2021/09/25 10:42:59;;;;;;;11.93;3.20;;;;;;;28.39;27.59;100158.91;5028120;28;20343;-71
2021/09/25 10:45:26;;;;;;;6.00;2.30;;;;;;;28.48;27.65;100155.41;5041350;28;20037;-71
2021/09/25 10:48:14;;;;;;;7.28;2.33;;;;;;;28.56;27.68;100159.50;5037483;28;20452;-71
2021/09/25 10:50:51;;;;;;;9.88;2.80;;;;;;;28.28;27.68;100158.91;5027754;28;20029;-71
2021/09/25 10:53:20;;;;;;;6.55;2.47;;;;;;;28.40;27.78;100147.75;5031969;28;20041;-71
2021/09/25 10:55:48;;;;;;;4.13;2.28;;;;;;;28.38;27.53;100146.38;5026913;28;20045;-71
2021/09/25 10:58:13;;;;;;;4.78;2.60;;;;;;;28.44;27.65;100145.31;5021395;28;20037;-71
2021/09/25 11:00:58;;;;;;;9.38;2.53;;;;;;;28.41;27.37;100148.56;5030275;28;20266;-71
2021/09/25 11:03:58;;;;;;;5.60;2.88;;;;;;;28.47;27.65;100152.94;5027149;28;20062;-71
2021/09/25 11:06:40;;;;;;;8.68;2.40;;;;;;;28.53;27.74;100146.41;4986572;28;20033;-71
2021/09/25 11:09:09;;;;;;;8.15;2.42;;;;;;;28.62;27.21;100139.34;5034385;28;20060;-71
2021/09/25 11:11:51;;;;;;;7.43;2.25;;;;;;;28.50;27.46;100150.50;5041123;28;20056;-71
2021/09/25 11:14:23;;;;;;;4.90;2.17;;;;;;;28.25;27.23;100148.53;5039662;28;20045;-71
2021/09/25 11:16:54;;;;;;;7.32;2.15;;;;;;;28.12;27.79;100129.16;5024686;28;20290;-71
2021/09/25 11:19:23;;;;;;;7.85;4.68;;;;;;;28.13;27.52;100130.78;5026663;28;20075;-71
2021/09/25 11:22:03;;;;;;;47.88;31.90;;;;;;;28.31;28.25;100124.88;5032779;28;20259;-71
2021/09/25 11:24:33;;;;;;;4.57;2.30;;;;;;;28.37;27.64;100120.25;5031359;28;20076;-71
2021/09/25 11:26:59;;;;;;;4.22;2.35;;;;;;;28.18;27.39;100117.19;5031555;28;20254;-71